KM4DYR-7 messages


fromtotime message
WXBOT KM4DYR-7 09/19 02:53:51z Reply 44{QK
WXBOT KM4DYR-7 09/19 02:53:46z Reply KDTS 190153Z 24006KT 10SM OVC095 31/24 A2994 RMK AO2 SLP138 T030602{QJ
KM4DYR-7 WXBOT 09/19 02:53:39z Send another KDTS{03
WXBOT KM4DYR-7 09/19 02:52:48z Reply Sorry, unable to get a forecast for location 30.39800/-86.50283{QI
KM4DYR-7 WXBOT 09/19 02:52:38z Send another Sorry, unable to get a forecast for location 30.39800/-86.50283{02
WXBOT KM4DYR-7 09/19 02:52:03z Reply Sorry, unable to get a forecast for location 30.39800/-86.50283{QH
KM4DYR-7 WXBOT 09/19 02:51:55z Send another KM4DYR-7{01
WXBOT KM4DYR-7 08/17 15:44:27z Reply 53005{NC
WXBOT KM4DYR-7 08/17 15:44:22z Reply KDTS 171453Z 19005KT 10SM CLR 31/25 A2999 RMK AO2 SLP153 T03110250{NB
WXBOT KM4DYR-7 08/17 15:43:23z Reply 53005{NA
WXBOT KM4DYR-7 08/17 15:43:18z Reply KDTS 171453Z 19005KT 10SM CLR 31/25 A2999 RMK AO2 SLP153 T03110250{MZ
KM4DYR-7 WXBOT 08/17 15:43:11z Send another KDTS{55